sensor_id;sensor_type;location;lat;lon;timestamp;P1;durP1;ratioP1;P2;durP2;ratioP2
19867;SDS011;10096;51.112;6.776;2024-03-08T00:00:38;21.30;;;18.53;;
19867;SDS011;10096;51.112;6.776;2024-03-08T00:03:09;23.37;;;18.80;;
19867;SDS011;10096;51.112;6.776;2024-03-08T00:05:38;22.33;;;18.27;;
19867;SDS011;10096;51.112;6.776;2024-03-08T00:08:08;22.83;;;17.60;;
19867;SDS011;10096;51.112;6.776;2024-03-08T00:10:36;22.70;;;18.47;;
19867;SDS011;10096;51.112;6.776;2024-03-08T00:13:05;20.23;;;17.43;;
19867;SDS011;10096;51.112;6.776;2024-03-08T00:15:32;22.73;;;18.70;;
19867;SDS011;10096;51.112;6.776;2024-03-08T00:18:01;21.63;;;18.40;;
19867;SDS011;10096;51.112;6.776;2024-03-08T00:20:32;23.17;;;19.27;;
19867;SDS011;10096;51.112;6.776;2024-03-08T00:23:12;22.77;;;18.27;;
19867;SDS011;10096;51.112;6.776;2024-03-08T00:25:40;23.23;;;18.93;;
19867;SDS011;10096;51.112;6.776;2024-03-08T00:28:17;21.60;;;17.70;;
19867;SDS011;10096;51.112;6.776;2024-03-08T00:30:47;22.00;;;17.70;;
19867;SDS011;10096;51.112;6.776;2024-03-08T00:33:16;21.13;;;17.60;;
19867;SDS011;10096;51.112;6.776;2024-03-08T00:35:48;22.67;;;17.97;;
19867;SDS011;10096;51.112;6.776;2024-03-08T00:38:16;20.83;;;17.63;;
19867;SDS011;10096;51.112;6.776;2024-03-08T00:40:43;23.00;;;18.10;;
19867;SDS011;10096;51.112;6.776;2024-03-08T00:43:11;23.17;;;17.80;;
19867;SDS011;10096;51.112;6.776;2024-03-08T00:48:45;22.97;;;18.83;;
19867;SDS011;10096;51.112;6.776;2024-03-08T00:51:20;23.87;;;17.77;;
19867;SDS011;10096;51.112;6.776;2024-03-08T00:53:47;21.33;;;17.50;;
19867;SDS011;10096;51.112;6.776;2024-03-08T00:56:15;25.70;;;19.43;;
19867;SDS011;10096;51.112;6.776;2024-03-08T00:58:46;22.13;;;18.20;;
19867;SDS011;10096;51.112;6.776;2024-03-08T01:01:20;26.40;;;18.53;;
19867;SDS011;10096;51.112;6.776;2024-03-08T01:03:47;25.60;;;19.03;;
19867;SDS011;10096;51.112;6.776;2024-03-08T01:06:27;25.97;;;20.00;;
19867;SDS011;10096;51.112;6.776;2024-03-08T01:08:56;25.20;;;19.80;;
19867;SDS011;10096;51.112;6.776;2024-03-08T01:11:26;23.77;;;19.37;;
19867;SDS011;10096;51.112;6.776;2024-03-08T01:13:55;24.83;;;19.23;;
19867;SDS011;10096;51.112;6.776;2024-03-08T01:16:42;25.40;;;19.23;;
19867;SDS011;10096;51.112;6.776;2024-03-08T01:19:10;21.60;;;18.27;;
19867;SDS011;10096;51.112;6.776;2024-03-08T01:21:39;23.70;;;19.07;;
19867;SDS011;10096;51.112;6.776;2024-03-08T01:24:19;23.00;;;18.27;;
19867;SDS011;10096;51.112;6.776;2024-03-08T01:26:50;25.13;;;19.40;;
19867;SDS011;10096;51.112;6.776;2024-03-08T01:29:21;23.87;;;19.37;;
19867;SDS011;10096;51.112;6.776;2024-03-08T01:31:57;24.53;;;18.83;;
19867;SDS011;10096;51.112;6.776;2024-03-08T01:34:30;26.23;;;19.33;;
19867;SDS011;10096;51.112;6.776;2024-03-08T01:37:00;23.40;;;19.27;;
19867;SDS011;10096;51.112;6.776;2024-03-08T01:39:36;26.83;;;19.77;;
19867;SDS011;10096;51.112;6.776;2024-03-08T01:42:07;26.37;;;19.47;;
19867;SDS011;10096;51.112;6.776;2024-03-08T01:44:46;24.37;;;19.97;;
19867;SDS011;10096;51.112;6.776;2024-03-08T01:47:25;24.77;;;18.30;;
19867;SDS011;10096;51.112;6.776;2024-03-08T01:50:08;26.47;;;19.67;;
19867;SDS011;10096;51.112;6.776;2024-03-08T01:52:35;26.00;;;19.47;;
19867;SDS011;10096;51.112;6.776;2024-03-08T01:55:07;26.90;;;20.03;;
19867;SDS011;10096;51.112;6.776;2024-03-08T01:57:35;28.27;;;19.47;;
19867;SDS011;10096;51.112;6.776;2024-03-08T02:00:09;25.33;;;19.10;;
19867;SDS011;10096;51.112;6.776;2024-03-08T02:02:45;23.43;;;18.23;;
19867;SDS011;10096;51.112;6.776;2024-03-08T02:05:13;24.77;;;18.87;;
19867;SDS011;10096;51.112;6.776;2024-03-08T02:07:46;23.10;;;18.10;;
19867;SDS011;10096;51.112;6.776;2024-03-08T02:10:18;24.73;;;19.37;;
19867;SDS011;10096;51.112;6.776;2024-03-08T02:12:50;25.00;;;19.73;;
19867;SDS011;10096;51.112;6.776;2024-03-08T02:15:17;27.60;;;19.97;;
19867;SDS011;10096;51.112;6.776;2024-03-08T02:17:56;26.00;;;20.40;;
19867;SDS011;10096;51.112;6.776;2024-03-08T02:20:29;29.37;;;19.97;;
19867;SDS011;10096;51.112;6.776;2024-03-08T02:22:59;28.53;;;19.83;;
19867;SDS011;10096;51.112;6.776;2024-03-08T02:25:27;27.20;;;20.07;;
19867;SDS011;10096;51.112;6.776;2024-03-08T02:27:57;26.47;;;20.10;;
19867;SDS011;10096;51.112;6.776;2024-03-08T02:30:30;26.20;;;19.63;;
19867;SDS011;10096;51.112;6.776;2024-03-08T02:32:59;26.90;;;20.63;;
19867;SDS011;10096;51.112;6.776;2024-03-08T02:35:26;26.00;;;19.80;;
19867;SDS011;10096;51.112;6.776;2024-03-08T02:38:05;25.97;;;19.40;;
19867;SDS011;10096;51.112;6.776;2024-03-08T02:40:37;24.17;;;18.90;;
19867;SDS011;10096;51.112;6.776;2024-03-08T02:43:09;24.87;;;19.97;;
19867;SDS011;10096;51.112;6.776;2024-03-08T02:45:42;26.80;;;18.90;;
19867;SDS011;10096;51.112;6.776;2024-03-08T02:48:13;27.40;;;20.30;;
19867;SDS011;10096;51.112;6.776;2024-03-08T02:50:55;25.53;;;18.73;;
19867;SDS011;10096;51.112;6.776;2024-03-08T02:53:25;28.03;;;18.70;;
19867;SDS011;10096;51.112;6.776;2024-03-08T02:55:55;28.00;;;18.40;;
19867;SDS011;10096;51.112;6.776;2024-03-08T02:58:30;24.63;;;18.50;;
19867;SDS011;10096;51.112;6.776;2024-03-08T03:01:00;23.80;;;18.87;;
19867;SDS011;10096;51.112;6.776;2024-03-08T03:03:32;28.17;;;19.00;;
19867;SDS011;10096;51.112;6.776;2024-03-08T03:06:10;25.17;;;19.23;;
19867;SDS011;10096;51.112;6.776;2024-03-08T03:08:37;26.27;;;19.30;;
19867;SDS011;10096;51.112;6.776;2024-03-08T03:11:11;28.27;;;19.13;;
19867;SDS011;10096;51.112;6.776;2024-03-08T03:13:49;25.73;;;19.10;;
19867;SDS011;10096;51.112;6.776;2024-03-08T03:16:18;28.73;;;19.77;;
19867;SDS011;10096;51.112;6.776;2024-03-08T03:18:46;24.97;;;19.70;;
19867;SDS011;10096;51.112;6.776;2024-03-08T03:21:17;25.17;;;18.57;;
19867;SDS011;10096;51.112;6.776;2024-03-08T03:23:48;29.40;;;20.93;;
19867;SDS011;10096;51.112;6.776;2024-03-08T03:26:16;24.80;;;19.50;;
19867;SDS011;10096;51.112;6.776;2024-03-08T03:28:44;25.77;;;18.90;;
19867;SDS011;10096;51.112;6.776;2024-03-08T03:31:15;28.23;;;19.70;;
19867;SDS011;10096;51.112;6.776;2024-03-08T03:33:44;23.53;;;18.63;;
19867;SDS011;10096;51.112;6.776;2024-03-08T03:36:27;26.70;;;19.63;;
19867;SDS011;10096;51.112;6.776;2024-03-08T03:39:07;25.70;;;18.77;;
19867;SDS011;10096;51.112;6.776;2024-03-08T03:41:37;25.93;;;19.27;;
19867;SDS011;10096;51.112;6.776;2024-03-08T03:44:04;26.33;;;19.10;;
19867;SDS011;10096;51.112;6.776;2024-03-08T03:46:36;24.87;;;19.37;;
19867;SDS011;10096;51.112;6.776;2024-03-08T03:49:04;26.00;;;18.87;;
19867;SDS011;10096;51.112;6.776;2024-03-08T03:51:34;25.90;;;18.57;;
19867;SDS011;10096;51.112;6.776;2024-03-08T03:54:00;25.07;;;19.47;;
19867;SDS011;10096;51.112;6.776;2024-03-08T03:56:28;27.53;;;18.87;;
19867;SDS011;10096;51.112;6.776;2024-03-08T03:58:57;24.87;;;19.13;;
19867;SDS011;10096;51.112;6.776;2024-03-08T04:01:24;26.03;;;19.50;;
19867;SDS011;10096;51.112;6.776;2024-03-08T04:03:51;25.70;;;19.43;;
19867;SDS011;10096;51.112;6.776;2024-03-08T04:06:20;24.87;;;19.93;;
19867;SDS011;10096;51.112;6.776;2024-03-08T04:08:49;28.03;;;20.27;;
19867;SDS011;10096;51.112;6.776;2024-03-08T04:11:17;28.50;;;20.10;;
19867;SDS011;10096;51.112;6.776;2024-03-08T04:13:44;24.87;;;18.43;;
19867;SDS011;10096;51.112;6.776;2024-03-08T04:16:14;27.77;;;19.47;;
19867;SDS011;10096;51.112;6.776;2024-03-08T04:18:43;27.17;;;19.40;;
19867;SDS011;10096;51.112;6.776;2024-03-08T04:21:15;25.87;;;19.40;;
19867;SDS011;10096;51.112;6.776;2024-03-08T04:23:42;27.90;;;19.67;;
19867;SDS011;10096;51.112;6.776;2024-03-08T04:26:14;25.83;;;19.93;;
19867;SDS011;10096;51.112;6.776;2024-03-08T04:28:44;24.80;;;19.17;;
19867;SDS011;10096;51.112;6.776;2024-03-08T04:31:11;27.13;;;19.93;;
19867;SDS011;10096;51.112;6.776;2024-03-08T04:33:38;28.00;;;20.20;;
19867;SDS011;10096;51.112;6.776;2024-03-08T04:36:05;28.90;;;20.80;;
19867;SDS011;10096;51.112;6.776;2024-03-08T04:38:36;28.33;;;20.47;;
19867;SDS011;10096;51.112;6.776;2024-03-08T04:41:06;29.23;;;20.13;;
19867;SDS011;10096;51.112;6.776;2024-03-08T04:43:34;28.37;;;20.57;;
19867;SDS011;10096;51.112;6.776;2024-03-08T04:46:01;25.13;;;19.13;;
19867;SDS011;10096;51.112;6.776;2024-03-08T04:48:30;25.97;;;19.50;;
19867;SDS011;10096;51.112;6.776;2024-03-08T04:51:02;28.90;;;19.17;;
19867;SDS011;10096;51.112;6.776;2024-03-08T04:53:30;28.97;;;20.40;;
19867;SDS011;10096;51.112;6.776;2024-03-08T04:55:59;29.07;;;20.90;;
19867;SDS011;10096;51.112;6.776;2024-03-08T04:58:31;26.47;;;19.90;;
19867;SDS011;10096;51.112;6.776;2024-03-08T05:01:01;29.17;;;20.17;;
19867;SDS011;10096;51.112;6.776;2024-03-08T05:03:32;27.73;;;20.30;;
19867;SDS011;10096;51.112;6.776;2024-03-08T05:06:00;31.53;;;20.00;;
19867;SDS011;10096;51.112;6.776;2024-03-08T05:08:27;27.03;;;19.47;;
19867;SDS011;10096;51.112;6.776;2024-03-08T05:10:54;26.90;;;20.17;;
19867;SDS011;10096;51.112;6.776;2024-03-08T05:13:23;25.07;;;19.20;;
19867;SDS011;10096;51.112;6.776;2024-03-08T05:15:50;30.50;;;20.83;;
19867;SDS011;10096;51.112;6.776;2024-03-08T05:18:18;32.37;;;20.50;;
19867;SDS011;10096;51.112;6.776;2024-03-08T05:20:51;34.57;;;20.37;;
19867;SDS011;10096;51.112;6.776;2024-03-08T05:23:22;27.50;;;20.83;;
19867;SDS011;10096;51.112;6.776;2024-03-08T05:25:56;28.47;;;19.80;;
19867;SDS011;10096;51.112;6.776;2024-03-08T05:28:23;27.03;;;18.97;;
19867;SDS011;10096;51.112;6.776;2024-03-08T05:30:52;32.93;;;20.80;;
19867;SDS011;10096;51.112;6.776;2024-03-08T05:33:23;28.30;;;20.27;;
19867;SDS011;10096;51.112;6.776;2024-03-08T05:36:08;27.63;;;19.90;;
19867;SDS011;10096;51.112;6.776;2024-03-08T05:38:43;27.90;;;19.90;;
19867;SDS011;10096;51.112;6.776;2024-03-08T05:41:09;28.17;;;20.33;;
19867;SDS011;10096;51.112;6.776;2024-03-08T05:43:45;30.13;;;21.17;;
19867;SDS011;10096;51.112;6.776;2024-03-08T05:46:23;26.87;;;21.13;;
19867;SDS011;10096;51.112;6.776;2024-03-08T05:48:57;26.07;;;19.70;;
19867;SDS011;10096;51.112;6.776;2024-03-08T05:51:25;26.63;;;19.20;;
19867;SDS011;10096;51.112;6.776;2024-03-08T05:53:59;28.57;;;20.30;;
19867;SDS011;10096;51.112;6.776;2024-03-08T05:56:31;28.07;;;19.97;;
19867;SDS011;10096;51.112;6.776;2024-03-08T05:59:00;26.13;;;19.67;;
19867;SDS011;10096;51.112;6.776;2024-03-08T06:01:34;29.73;;;19.40;;
19867;SDS011;10096;51.112;6.776;2024-03-08T06:06:55;26.97;;;18.43;;
19867;SDS011;10096;51.112;6.776;2024-03-08T06:09:23;27.80;;;19.80;;
19867;SDS011;10096;51.112;6.776;2024-03-08T06:11:50;29.77;;;20.07;;
19867;SDS011;10096;51.112;6.776;2024-03-08T06:14:18;27.73;;;19.57;;
19867;SDS011;10096;51.112;6.776;2024-03-08T06:16:46;32.43;;;19.97;;
19867;SDS011;10096;51.112;6.776;2024-03-08T06:19:15;25.83;;;18.93;;
19867;SDS011;10096;51.112;6.776;2024-03-08T06:21:55;29.70;;;20.47;;
19867;SDS011;10096;51.112;6.776;2024-03-08T06:24:22;24.70;;;18.97;;
19867;SDS011;10096;51.112;6.776;2024-03-08T06:26:53;26.73;;;20.77;;
19867;SDS011;10096;51.112;6.776;2024-03-08T06:29:19;28.70;;;20.47;;
19867;SDS011;10096;51.112;6.776;2024-03-08T06:31:59;26.03;;;19.33;;
19867;SDS011;10096;51.112;6.776;2024-03-08T06:34:28;26.20;;;19.73;;
19867;SDS011;10096;51.112;6.776;2024-03-08T06:37:05;26.90;;;19.67;;
19867;SDS011;10096;51.112;6.776;2024-03-08T06:39:35;25.03;;;19.50;;
19867;SDS011;10096;51.112;6.776;2024-03-08T06:42:02;30.27;;;20.27;;
19867;SDS011;10096;51.112;6.776;2024-03-08T06:44:42;25.67;;;20.47;;
19867;SDS011;10096;51.112;6.776;2024-03-08T06:47:14;27.70;;;20.40;;
19867;SDS011;10096;51.112;6.776;2024-03-08T06:49:41;29.47;;;20.63;;
19867;SDS011;10096;51.112;6.776;2024-03-08T06:52:12;29.47;;;20.53;;
19867;SDS011;10096;51.112;6.776;2024-03-08T06:54:40;32.13;;;20.97;;
19867;SDS011;10096;51.112;6.776;2024-03-08T06:57:08;26.97;;;20.50;;
19867;SDS011;10096;51.112;6.776;2024-03-08T06:59:41;27.40;;;20.37;;
19867;SDS011;10096;51.112;6.776;2024-03-08T07:02:09;25.03;;;19.43;;
19867;SDS011;10096;51.112;6.776;2024-03-08T07:04:38;28.60;;;19.47;;
19867;SDS011;10096;51.112;6.776;2024-03-08T07:07:05;24.87;;;20.50;;
19867;SDS011;10096;51.112;6.776;2024-03-08T07:09:36;23.87;;;18.33;;
19867;SDS011;10096;51.112;6.776;2024-03-08T07:12:03;24.83;;;19.70;;
19867;SDS011;10096;51.112;6.776;2024-03-08T07:14:34;24.23;;;19.97;;
19867;SDS011;10096;51.112;6.776;2024-03-08T07:17:09;26.27;;;20.85;;
19867;SDS011;10096;51.112;6.776;2024-03-08T07:19:36;22.90;;;19.52;;
19867;SDS011;10096;51.112;6.776;2024-03-08T07:22:04;23.08;;;19.50;;
19867;SDS011;10096;51.112;6.776;2024-03-08T07:24:36;21.95;;;19.60;;
19867;SDS011;10096;51.112;6.776;2024-03-08T07:27:21;20.67;;;17.95;;
19867;SDS011;10096;51.112;6.776;2024-03-08T07:29:56;22.98;;;20.15;;
19867;SDS011;10096;51.112;6.776;2024-03-08T07:32:28;21.60;;;18.90;;
19867;SDS011;10096;51.112;6.776;2024-03-08T07:34:55;23.73;;;18.75;;
19867;SDS011;10096;51.112;6.776;2024-03-08T07:37:22;22.02;;;18.60;;
19867;SDS011;10096;51.112;6.776;2024-03-08T07:39:56;24.15;;;19.85;;
19867;SDS011;10096;51.112;6.776;2024-03-08T07:42:24;24.55;;;19.10;;
19867;SDS011;10096;51.112;6.776;2024-03-08T07:44:57;22.38;;;19.95;;
19867;SDS011;10096;51.112;6.776;2024-03-08T07:47:24;27.23;;;20.48;;
19867;SDS011;10096;51.112;6.776;2024-03-08T07:49:57;23.15;;;18.77;;
19867;SDS011;10096;51.112;6.776;2024-03-08T07:52:26;23.80;;;18.90;;
19867;SDS011;10096;51.112;6.776;2024-03-08T07:54:58;22.55;;;18.55;;
19867;SDS011;10096;51.112;6.776;2024-03-08T07:57:25;21.58;;;19.27;;
19867;SDS011;10096;51.112;6.776;2024-03-08T07:59:57;23.15;;;20.17;;
19867;SDS011;10096;51.112;6.776;2024-03-08T08:02:24;21.95;;;19.08;;
19867;SDS011;10096;51.112;6.776;2024-03-08T08:04:54;23.27;;;19.23;;
19867;SDS011;10096;51.112;6.776;2024-03-08T08:07:24;24.98;;;20.73;;
19867;SDS011;10096;51.112;6.776;2024-03-08T08:09:53;30.80;;;21.77;;
19867;SDS011;10096;51.112;6.776;2024-03-08T08:12:26;22.33;;;18.60;;
19867;SDS011;10096;51.112;6.776;2024-03-08T08:14:55;20.02;;;17.77;;
19867;SDS011;10096;51.112;6.776;2024-03-08T08:17:23;23.08;;;18.90;;
19867;SDS011;10096;51.112;6.776;2024-03-08T08:19:52;21.75;;;18.65;;
19867;SDS011;10096;51.112;6.776;2024-03-08T08:22:22;20.58;;;17.42;;
19867;SDS011;10096;51.112;6.776;2024-03-08T08:24:50;21.67;;;18.95;;
19867;SDS011;10096;51.112;6.776;2024-03-08T08:27:20;20.67;;;17.92;;
19867;SDS011;10096;51.112;6.776;2024-03-08T08:29:52;21.63;;;19.17;;
19867;SDS011;10096;51.112;6.776;2024-03-08T08:32:19;21.90;;;17.08;;
19867;SDS011;10096;51.112;6.776;2024-03-08T08:34:46;19.83;;;17.55;;
19867;SDS011;10096;51.112;6.776;2024-03-08T08:37:22;23.27;;;18.73;;
19867;SDS011;10096;51.112;6.776;2024-03-08T08:39:50;19.75;;;16.50;;
19867;SDS011;10096;51.112;6.776;2024-03-08T08:42:17;28.77;;;17.83;;
19867;SDS011;10096;51.112;6.776;2024-03-08T08:44:44;20.40;;;16.67;;
19867;SDS011;10096;51.112;6.776;2024-03-08T08:47:16;21.67;;;16.50;;
19867;SDS011;10096;51.112;6.776;2024-03-08T08:49:46;20.95;;;15.68;;
19867;SDS011;10096;51.112;6.776;2024-03-08T08:52:12;23.83;;;17.47;;
19867;SDS011;10096;51.112;6.776;2024-03-08T08:54:53;17.87;;;15.30;;
19867;SDS011;10096;51.112;6.776;2024-03-08T08:57:21;20.80;;;17.67;;
19867;SDS011;10096;51.112;6.776;2024-03-08T08:59:49;21.83;;;17.50;;
19867;SDS011;10096;51.112;6.776;2024-03-08T09:02:17;20.40;;;17.00;;
19867;SDS011;10096;51.112;6.776;2024-03-08T09:04:46;19.10;;;15.27;;
19867;SDS011;10096;51.112;6.776;2024-03-08T09:07:14;23.23;;;17.77;;
19867;SDS011;10096;51.112;6.776;2024-03-08T09:09:42;21.87;;;17.73;;
19867;SDS011;10096;51.112;6.776;2024-03-08T09:12:11;21.73;;;15.60;;
19867;SDS011;10096;51.112;6.776;2024-03-08T09:15:02;20.20;;;15.93;;
19867;SDS011;10096;51.112;6.776;2024-03-08T09:17:32;19.20;;;15.77;;
19867;SDS011;10096;51.112;6.776;2024-03-08T09:19:59;23.53;;;16.53;;
19867;SDS011;10096;51.112;6.776;2024-03-08T09:22:28;22.03;;;16.30;;
19867;SDS011;10096;51.112;6.776;2024-03-08T09:25:02;17.57;;;14.10;;
19867;SDS011;10096;51.112;6.776;2024-03-08T09:27:30;19.83;;;15.97;;
19867;SDS011;10096;51.112;6.776;2024-03-08T09:30:00;19.10;;;15.53;;
19867;SDS011;10096;51.112;6.776;2024-03-08T09:32:28;20.27;;;15.27;;
19867;SDS011;10096;51.112;6.776;2024-03-08T09:34:57;20.13;;;14.90;;
19867;SDS011;10096;51.112;6.776;2024-03-08T09:37:26;20.17;;;15.20;;
19867;SDS011;10096;51.112;6.776;2024-03-08T09:39:56;19.90;;;16.13;;
19867;SDS011;10096;51.112;6.776;2024-03-08T09:42:29;18.43;;;13.17;;
19867;SDS011;10096;51.112;6.776;2024-03-08T09:44:57;20.43;;;16.23;;
19867;SDS011;10096;51.112;6.776;2024-03-08T09:47:30;20.73;;;15.50;;
19867;SDS011;10096;51.112;6.776;2024-03-08T09:50:01;17.83;;;14.43;;
19867;SDS011;10096;51.112;6.776;2024-03-08T09:52:29;18.43;;;15.53;;
19867;SDS011;10096;51.112;6.776;2024-03-08T09:54:57;21.97;;;15.07;;
19867;SDS011;10096;51.112;6.776;2024-03-08T09:57:26;20.73;;;15.60;;
19867;SDS011;10096;51.112;6.776;2024-03-08T09:59:54;17.13;;;14.27;;
19867;SDS011;10096;51.112;6.776;2024-03-08T10:02:21;15.83;;;13.33;;
19867;SDS011;10096;51.112;6.776;2024-03-08T10:04:48;16.83;;;14.00;;
19867;SDS011;10096;51.112;6.776;2024-03-08T10:07:22;16.57;;;13.37;;
19867;SDS011;10096;51.112;6.776;2024-03-08T10:09:52;15.23;;;13.50;;
19867;SDS011;10096;51.112;6.776;2024-03-08T10:12:24;15.93;;;14.07;;
19867;SDS011;10096;51.112;6.776;2024-03-08T10:14:54;20.40;;;13.50;;
19867;SDS011;10096;51.112;6.776;2024-03-08T10:17:21;16.90;;;13.63;;
19867;SDS011;10096;51.112;6.776;2024-03-08T10:19:51;16.37;;;13.37;;
19867;SDS011;10096;51.112;6.776;2024-03-08T10:22:26;16.20;;;13.17;;
19867;SDS011;10096;51.112;6.776;2024-03-08T10:24:54;17.37;;;13.53;;
19867;SDS011;10096;51.112;6.776;2024-03-08T10:27:22;15.90;;;13.13;;
19867;SDS011;10096;51.112;6.776;2024-03-08T10:29:51;16.30;;;12.83;;
19867;SDS011;10096;51.112;6.776;2024-03-08T10:32:22;15.57;;;13.00;;
19867;SDS011;10096;51.112;6.776;2024-03-08T10:34:49;16.93;;;12.80;;
19867;SDS011;10096;51.112;6.776;2024-03-08T10:37:16;15.53;;;13.47;;
19867;SDS011;10096;51.112;6.776;2024-03-08T10:39:52;14.80;;;10.27;;
19867;SDS011;10096;51.112;6.776;2024-03-08T10:42:35;17.17;;;14.13;;
19867;SDS011;10096;51.112;6.776;2024-03-08T10:45:09;17.27;;;13.70;;
19867;SDS011;10096;51.112;6.776;2024-03-08T10:47:41;15.57;;;13.73;;
19867;SDS011;10096;51.112;6.776;2024-03-08T10:50:18;14.30;;;12.20;;
19867;SDS011;10096;51.112;6.776;2024-03-08T10:52:50;18.02;;;13.48;;
19867;SDS011;10096;51.112;6.776;2024-03-08T10:55:20;15.47;;;12.43;;
19867;SDS011;10096;51.112;6.776;2024-03-08T10:57:54;14.73;;;12.40;;
19867;SDS011;10096;51.112;6.776;2024-03-08T11:00:22;15.75;;;12.52;;
19867;SDS011;10096;51.112;6.776;2024-03-08T11:02:51;16.07;;;12.67;;
19867;SDS011;10096;51.112;6.776;2024-03-08T11:05:31;15.10;;;12.93;;
19867;SDS011;10096;51.112;6.776;2024-03-08T11:08:06;19.63;;;13.87;;
19867;SDS011;10096;51.112;6.776;2024-03-08T11:10:50;15.63;;;13.17;;
19867;SDS011;10096;51.112;6.776;2024-03-08T11:13:35;15.52;;;12.93;;
19867;SDS011;10096;51.112;6.776;2024-03-08T11:16:10;15.35;;;13.27;;
19867;SDS011;10096;51.112;6.776;2024-03-08T11:18:41;15.45;;;12.35;;
19867;SDS011;10096;51.112;6.776;2024-03-08T11:21:08;16.38;;;13.10;;
19867;SDS011;10096;51.112;6.776;2024-03-08T11:23:37;15.80;;;12.90;;
19867;SDS011;10096;51.112;6.776;2024-03-08T11:26:18;15.38;;;13.13;;
19867;SDS011;10096;51.112;6.776;2024-03-08T11:28:47;15.60;;;13.00;;
19867;SDS011;10096;51.112;6.776;2024-03-08T11:31:23;17.10;;;13.30;;
19867;SDS011;10096;51.112;6.776;2024-03-08T11:33:51;15.32;;;12.63;;
19867;SDS011;10096;51.112;6.776;2024-03-08T11:36:20;14.10;;;12.60;;
19867;SDS011;10096;51.112;6.776;2024-03-08T11:38:49;14.05;;;11.63;;
19867;SDS011;10096;51.112;6.776;2024-03-08T11:41:19;15.68;;;12.88;;
19867;SDS011;10096;51.112;6.776;2024-03-08T11:43:48;13.05;;;11.63;;
19867;SDS011;10096;51.112;6.776;2024-03-08T11:46:16;13.90;;;12.05;;
19867;SDS011;10096;51.112;6.776;2024-03-08T11:48:59;16.98;;;13.65;;
19867;SDS011;10096;51.112;6.776;2024-03-08T11:51:31;14.30;;;11.45;;
19867;SDS011;10096;51.112;6.776;2024-03-08T11:53:58;15.27;;;11.77;;
19867;SDS011;10096;51.112;6.776;2024-03-08T11:56:28;13.60;;;11.65;;
19867;SDS011;10096;51.112;6.776;2024-03-08T11:59:00;13.60;;;11.05;;
19867;SDS011;10096;51.112;6.776;2024-03-08T12:01:27;13.93;;;11.55;;
19867;SDS011;10096;51.112;6.776;2024-03-08T12:03:56;15.05;;;12.60;;
19867;SDS011;10096;51.112;6.776;2024-03-08T12:06:27;15.48;;;12.68;;
19867;SDS011;10096;51.112;6.776;2024-03-08T12:09:04;13.02;;;11.63;;
19867;SDS011;10096;51.112;6.776;2024-03-08T12:11:37;11.20;;;10.10;;
19867;SDS011;10096;51.112;6.776;2024-03-08T12:14:06;13.48;;;11.13;;
19867;SDS011;10096;51.112;6.776;2024-03-08T12:16:33;11.45;;;10.25;;
19867;SDS011;10096;51.112;6.776;2024-03-08T12:19:02;11.05;;;9.80;;
19867;SDS011;10096;51.112;6.776;2024-03-08T12:21:35;15.38;;;12.52;;
19867;SDS011;10096;51.112;6.776;2024-03-08T12:24:03;13.65;;;12.13;;
19867;SDS011;10096;51.112;6.776;2024-03-08T12:26:43;14.73;;;12.25;;
19867;SDS011;10096;51.112;6.776;2024-03-08T12:29:17;14.73;;;11.00;;
19867;SDS011;10096;51.112;6.776;2024-03-08T12:31:47;15.18;;;11.38;;
19867;SDS011;10096;51.112;6.776;2024-03-08T12:34:16;12.60;;;10.48;;
19867;SDS011;10096;51.112;6.776;2024-03-08T12:36:44;13.77;;;10.20;;
19867;SDS011;10096;51.112;6.776;2024-03-08T12:39:13;12.18;;;10.88;;
19867;SDS011;10096;51.112;6.776;2024-03-08T12:41:56;13.00;;;11.68;;
19867;SDS011;10096;51.112;6.776;2024-03-08T12:44:24;13.07;;;11.20;;
19867;SDS011;10096;51.112;6.776;2024-03-08T12:46:53;12.55;;;10.60;;
19867;SDS011;10096;51.112;6.776;2024-03-08T12:49:20;17.35;;;12.18;;
19867;SDS011;10096;51.112;6.776;2024-03-08T12:51:57;13.98;;;10.95;;
19867;SDS011;10096;51.112;6.776;2024-03-08T12:54:26;12.23;;;9.70;;
19867;SDS011;10096;51.112;6.776;2024-03-08T12:56:57;14.45;;;11.77;;
19867;SDS011;10096;51.112;6.776;2024-03-08T12:59:28;12.00;;;10.27;;
19867;SDS011;10096;51.112;6.776;2024-03-08T13:01:57;14.70;;;11.10;;
19867;SDS011;10096;51.112;6.776;2024-03-08T13:04:25;13.45;;;12.05;;
19867;SDS011;10096;51.112;6.776;2024-03-08T13:06:52;12.43;;;10.10;;
19867;SDS011;10096;51.112;6.776;2024-03-08T13:09:20;11.70;;;10.48;;
19867;SDS011;10096;51.112;6.776;2024-03-08T13:11:48;12.48;;;10.55;;
19867;SDS011;10096;51.112;6.776;2024-03-08T13:14:16;12.00;;;10.25;;
19867;SDS011;10096;51.112;6.776;2024-03-08T13:16:50;11.77;;;10.48;;
19867;SDS011;10096;51.112;6.776;2024-03-08T13:19:17;12.10;;;9.95;;
19867;SDS011;10096;51.112;6.776;2024-03-08T13:21:47;13.07;;;11.60;;
19867;SDS011;10096;51.112;6.776;2024-03-08T13:24:14;12.60;;;10.82;;
19867;SDS011;10096;51.112;6.776;2024-03-08T13:26:41;12.85;;;11.40;;
19867;SDS011;10096;51.112;6.776;2024-03-08T13:29:18;11.98;;;10.40;;
19867;SDS011;10096;51.112;6.776;2024-03-08T13:31:46;13.15;;;11.57;;
19867;SDS011;10096;51.112;6.776;2024-03-08T13:34:16;12.98;;;11.27;;
19867;SDS011;10096;51.112;6.776;2024-03-08T13:36:43;12.15;;;10.73;;
19867;SDS011;10096;51.112;6.776;2024-03-08T13:39:16;14.55;;;11.00;;
19867;SDS011;10096;51.112;6.776;2024-03-08T13:41:45;12.50;;;10.65;;
19867;SDS011;10096;51.112;6.776;2024-03-08T13:44:13;12.15;;;10.50;;
19867;SDS011;10096;51.112;6.776;2024-03-08T13:46:54;12.23;;;10.45;;
19867;SDS011;10096;51.112;6.776;2024-03-08T13:49:23;12.05;;;9.73;;
19867;SDS011;10096;51.112;6.776;2024-03-08T13:51:59;13.38;;;10.80;;
19867;SDS011;10096;51.112;6.776;2024-03-08T13:54:35;12.75;;;11.05;;
19867;SDS011;10096;51.112;6.776;2024-03-08T13:57:07;10.88;;;9.40;;
19867;SDS011;10096;51.112;6.776;2024-03-08T13:59:34;11.90;;;9.75;;
19867;SDS011;10096;51.112;6.776;2024-03-08T14:04:48;10.65;;;9.55;;
19867;SDS011;10096;51.112;6.776;2024-03-08T14:07:15;11.57;;;9.73;;
19867;SDS011;10096;51.112;6.776;2024-03-08T14:09:42;10.85;;;9.65;;
19867;SDS011;10096;51.112;6.776;2024-03-08T14:12:11;11.85;;;10.20;;
19867;SDS011;10096;51.112;6.776;2024-03-08T14:14:51;11.20;;;10.02;;
19867;SDS011;10096;51.112;6.776;2024-03-08T14:17:20;11.75;;;10.25;;
19867;SDS011;10096;51.112;6.776;2024-03-08T14:20:01;12.43;;;10.93;;
19867;SDS011;10096;51.112;6.776;2024-03-08T14:22:30;13.18;;;10.63;;
19867;SDS011;10096;51.112;6.776;2024-03-08T14:25:05;14.07;;;10.88;;
19867;SDS011;10096;51.112;6.776;2024-03-08T14:27:41;13.07;;;11.02;;
19867;SDS011;10096;51.112;6.776;2024-03-08T14:30:11;11.57;;;9.30;;
19867;SDS011;10096;51.112;6.776;2024-03-08T14:32:44;13.75;;;11.02;;
19867;SDS011;10096;51.112;6.776;2024-03-08T14:35:12;16.13;;;12.68;;
19867;SDS011;10096;51.112;6.776;2024-03-08T14:37:40;14.50;;;12.35;;
19867;SDS011;10096;51.112;6.776;2024-03-08T14:40:12;17.00;;;13.65;;
19867;SDS011;10096;51.112;6.776;2024-03-08T14:42:55;15.25;;;11.68;;
19867;SDS011;10096;51.112;6.776;2024-03-08T14:45:31;14.77;;;11.95;;
19867;SDS011;10096;51.112;6.776;2024-03-08T14:48:01;18.30;;;14.05;;
19867;SDS011;10096;51.112;6.776;2024-03-08T14:50:29;11.10;;;9.75;;